Time;durP1;ratioP1;P1;durP2;ratioP2;P2;SDS_P1;SDS_P2;PMS_P1;PMS_P2;Temp;Humidity;BMP_temperature;BMP_pressure;BME280_temperature;BME280_humidity;BME280_pressure;Samples;Min_cycle;Max_cycle;Signal;HPM_P1;HPM_P2
2022/02/24 00:00:37;;;;;;;7.25;3.20;;;4.80;6.80;;;;;;5017960;28;20038;-71
2022/02/24 00:03:04;;;;;;;10.85;3.05;;;4.80;12.20;;;;;;5018502;28;20551;-71
2022/02/24 00:05:30;;;;;;;6.28;3.25;;;4.90;9.50;;;;;;5017896;28;20041;-71
2022/02/24 00:07:56;;;;;;;7.75;3.05;;;4.90;13.90;;;;;;5017275;28;20049;-71
2022/02/24 00:10:22;;;;;;;7.50;2.78;;;4.90;6.00;;;;;;5017977;28;20048;-71
2022/02/24 00:12:48;;;;;;;13.00;3.30;;;4.90;5.10;;;;;;5017626;28;20042;-71
2022/02/24 00:15:14;;;;;;;7.45;3.08;;;4.90;12.40;;;;;;5017716;28;20042;-71
2022/02/24 00:17:40;;;;;;;6.15;2.90;;;4.90;6.20;;;;;;5018046;28;20392;-71
2022/02/24 00:20:07;;;;;;;7.65;2.75;;;4.90;4.90;;;;;;5017291;28;20477;-71
2022/02/24 00:22:34;;;;;;;8.35;3.15;;;5.00;5.80;;;;;;5017344;28;20473;-71
2022/02/24 00:25:01;;;;;;;7.47;3.63;;;5.10;4.90;;;;;;5017547;28;20511;-71
2022/02/24 00:27:27;;;;;;;9.32;4.53;;;5.20;1.00;;;;;;5017531;28;20042;-71
2022/02/24 00:29:53;;;;;;;14.00;5.35;;;5.30;1.00;;;;;;5017654;28;20176;-71
2022/02/24 00:32:19;;;;;;;8.23;3.95;;;5.40;1.00;;;;;;5017176;28;20393;-71
2022/02/24 00:34:44;;;;;;;9.70;4.32;;;5.40;1.00;;;;;;5017309;28;20180;-71
2022/02/24 00:37:11;;;;;;;8.32;3.58;;;5.40;1.00;;;;;;5016941;28;20065;-71
2022/02/24 00:39:37;;;;;;;9.43;3.00;;;5.40;1.00;;;;;;5017605;28;20128;-71
2022/02/24 00:42:03;;;;;;;10.02;4.57;;;5.40;1.00;;;;;;5017454;28;20515;-71
2022/02/24 00:44:28;;;;;;;9.35;3.75;;;5.40;1.00;;;;;;5017173;28;20038;-71
2022/02/24 00:46:54;;;;;;;5.18;3.45;;;5.40;1.00;;;;;;5017239;28;20069;-71
2022/02/24 00:49:22;;;;;;;6.53;3.10;;;5.30;1.00;;;;;;5017044;28;20084;-71
2022/02/24 00:51:48;;;;;;;6.15;2.95;;;5.40;1.00;;;;;;5016803;28;20052;-71
2022/02/24 00:54:17;;;;;;;11.23;3.88;;;5.60;1.00;;;;;;5016947;28;20129;-71
2022/02/24 00:56:43;;;;;;;10.30;4.00;;;5.50;1.00;;;;;;5016622;28;20053;-71
2022/02/24 00:59:09;;;;;;;8.55;3.92;;;5.50;1.00;;;;;;5016115;28;20033;-71
2022/02/24 01:01:35;;;;;;;5.85;3.35;;;5.50;1.00;;;;;;5016929;28;20065;-71
2022/02/24 01:04:00;;;;;;;10.25;3.20;;;5.40;1.00;;;;;;5016896;28;20065;-71
2022/02/24 01:06:26;;;;;;;11.40;3.05;;;5.30;5.30;;;;;;5015826;28;20022;-71
2022/02/24 01:08:52;;;;;;;9.73;3.00;;;5.20;6.10;;;;;;5016794;28;20064;-71
2022/02/24 01:11:18;;;;;;;7.50;2.90;;;5.30;10.30;;;;;;5016086;28;20041;-71
2022/02/24 01:13:44;;;;;;;7.70;2.80;;;5.40;6.20;;;;;;5016788;28;20133;-71
2022/02/24 01:16:10;;;;;;;6.75;2.60;;;5.40;4.20;;;;;;5016458;28;20115;-71
2022/02/24 01:18:36;;;;;;;7.63;2.42;;;5.50;4.50;;;;;;5016566;28;20096;-71
2022/02/24 01:21:01;;;;;;;7.00;2.50;;;5.40;4.50;;;;;;5016104;28;20079;-71
2022/02/24 01:23:27;;;;;;;8.45;2.47;;;5.30;3.40;;;;;;5016353;28;20048;-71
2022/02/24 01:25:53;;;;;;;5.13;2.67;;;5.30;8.10;;;;;;5016394;28;20046;-71
2022/02/24 01:28:19;;;;;;;5.40;2.45;;;5.40;8.70;;;;;;5016459;28;20488;-71
2022/02/24 01:30:45;;;;;;;7.32;2.60;;;5.40;4.70;;;;;;5016050;28;20048;-71
2022/02/24 01:33:11;;;;;;;17.95;12.07;;;5.30;7.80;;;;;;5015921;28;20042;-71
2022/02/24 01:35:37;;;;;;;9.23;3.25;;;5.30;9.40;;;;;;5015889;28;20045;-71
2022/02/24 01:38:02;;;;;;;8.30;3.38;;;5.10;9.50;;;;;;5015606;28;20037;-71
2022/02/24 01:40:28;;;;;;;9.27;4.43;;;5.00;11.30;;;;;;5015823;28;20045;-71
2022/02/24 01:42:54;;;;;;;7.50;3.95;;;4.80;23.40;;;;;;5016113;28;20050;-71
2022/02/24 01:45:20;;;;;;;7.00;4.53;;;4.80;24.80;;;;;;5015985;28;20045;-71
2022/02/24 01:47:46;;;;;;;9.18;3.97;;;4.80;26.70;;;;;;5015760;28;20492;-71
2022/02/24 01:50:13;;;;;;;9.73;3.45;;;4.90;26.70;;;;;;5015407;28;20092;-71
2022/02/24 01:52:42;;;;;;;10.60;3.78;;;4.90;24.20;;;;;;5015197;28;20046;-71
2022/02/24 01:55:08;;;;;;;11.38;3.78;;;5.00;21.50;;;;;;5015452;28;20551;-71
2022/02/24 01:57:34;;;;;;;10.23;3.83;;;5.10;20.70;;;;;;5015860;28;20141;-71
2022/02/24 02:00:01;;;;;;;8.32;3.40;;;5.20;18.70;;;;;;5015358;28;20038;-71
2022/02/24 02:02:27;;;;;;;10.02;3.55;;;5.20;15.00;;;;;;5015403;28;20033;-71
2022/02/24 02:04:53;;;;;;;11.48;3.13;;;5.20;11.70;;;;;;5015142;28;20033;-71
2022/02/24 02:07:21;;;;;;;10.00;3.28;;;5.30;16.00;;;;;;5015316;28;20057;-71
2022/02/24 02:09:47;;;;;;;7.15;3.13;;;5.50;15.80;;;;;;5015202;28;20042;-71
2022/02/24 02:12:13;;;;;;;8.63;3.10;;;5.50;12.00;;;;;;5014678;28;20044;-71
2022/02/24 02:14:39;;;;;;;10.23;3.42;;;5.50;12.90;;;;;;5015246;28;20052;-71
2022/02/24 02:17:05;;;;;;;12.25;3.40;;;5.50;19.20;;;;;;5015575;28;20049;-71
2022/02/24 02:19:31;;;;;;;10.20;2.90;;;5.40;18.90;;;;;;5015491;28;20034;-71
2022/02/24 02:21:57;;;;;;;7.78;3.03;;;5.60;22.60;;;;;;5015264;28;20052;-71
2022/02/24 02:24:24;;;;;;;13.88;3.30;;;5.80;17.60;;;;;;5014071;28;20045;-71
2022/02/24 02:26:50;;;;;;;9.52;3.13;;;5.90;13.70;;;;;;5015527;28;20124;-71
2022/02/24 02:29:17;;;;;;;9.40;3.67;;;6.00;10.00;;;;;;5015347;28;20453;-71
2022/02/24 02:31:43;;;;;;;9.13;3.40;;;5.90;2.80;;;;;;5015291;28;20038;-71
2022/02/24 02:34:16;;;;;;;8.93;3.05;;;5.90;5.80;;;;;;5015203;28;20076;-71
2022/02/24 02:36:45;;;;;;;9.55;3.28;;;5.90;3.10;;;;;;5015202;28;20046;-71
2022/02/24 02:39:11;;;;;;;9.85;3.17;;;5.80;6.00;;;;;;5014937;28;20077;-71
2022/02/24 02:41:39;;;;;;;12.27;3.95;;;5.80;9.80;;;;;;5014894;28;20527;-71
2022/02/24 02:44:06;;;;;;;9.32;2.97;;;5.70;6.80;;;;;;5015412;28;20053;-71
2022/02/24 02:46:32;;;;;;;8.55;2.72;;;5.80;7.90;;;;;;5014894;28;20374;-71
2022/02/24 02:48:58;;;;;;;10.10;3.13;;;5.90;10.30;;;;;;5015078;28;20041;-71
2022/02/24 02:51:24;;;;;;;7.05;3.85;;;5.80;5.00;;;;;;5014604;28;20631;-71
2022/02/24 02:53:50;;;;;;;13.13;5.07;;;5.90;8.80;;;;;;5014703;28;20129;-71
2022/02/24 02:56:16;;;;;;;11.70;3.10;;;6.00;5.20;;;;;;5015026;28;20046;-71
2022/02/24 02:58:42;;;;;;;10.10;3.45;;;6.10;5.20;;;;;;5014701;28;20500;-71
2022/02/24 03:01:08;;;;;;;12.45;2.80;;;6.10;3.60;;;;;;5014676;28;20056;-71
2022/02/24 03:03:34;;;;;;;10.77;2.70;;;6.10;3.00;;;;;;5014976;28;20069;-71
2022/02/24 03:06:00;;;;;;;12.35;3.30;;;6.10;4.50;;;;;;5014969;28;20511;-71
2022/02/24 03:08:27;;;;;;;11.73;3.00;;;6.00;6.60;;;;;;5014175;28;20049;-71
2022/02/24 03:10:52;;;;;;;7.60;2.90;;;6.20;8.10;;;;;;5014595;28;20066;-71
2022/02/24 03:13:19;;;;;;;12.30;3.35;;;6.10;8.00;;;;;;5014203;28;20076;-71
2022/02/24 03:15:45;;;;;;;13.10;3.42;;;6.20;8.40;;;;;;5029714;28;20042;-71
2022/02/24 03:18:11;;;;;;;13.57;3.85;;;6.30;7.50;;;;;;5014612;28;20112;-71
2022/02/24 03:20:37;;;;;;;12.35;3.20;;;6.20;10.20;;;;;;5014237;28;20444;-71
2022/02/24 03:23:08;;;;;;;14.02;3.58;;;6.20;13.90;;;;;;5016621;28;20493;-71
2022/02/24 03:25:35;;;;;;;12.73;3.42;;;6.20;14.60;;;;;;5018104;28;20045;-71
2022/02/24 03:28:01;;;;;;;9.32;3.38;;;6.30;22.00;;;;;;5018682;28;20045;-71
2022/02/24 03:30:28;;;;;;;15.75;3.53;;;6.30;17.20;;;;;;5017983;28;20105;-71
2022/02/24 03:32:54;;;;;;;17.33;3.15;;;6.30;18.80;;;;;;5018187;28;20523;-71
2022/02/24 03:35:21;;;;;;;13.60;3.67;;;6.40;23.50;;;;;;5018184;28;20037;-71
2022/02/24 03:37:48;;;;;;;15.68;3.78;;;6.40;16.80;;;;;;5018306;28;20042;-71
2022/02/24 03:40:15;;;;;;;14.35;3.85;;;6.40;15.20;;;;;;5018024;28;20038;-71
2022/02/24 03:42:43;;;;;;;12.30;3.55;;;6.40;15.00;;;;;;5018082;28;20125;-71
2022/02/24 03:45:09;;;;;;;16.38;3.92;;;6.40;12.20;;;;;;5017727;28;20570;-71
2022/02/24 03:47:35;;;;;;;9.40;3.08;;;6.40;14.90;;;;;;5018340;28;20034;-71
2022/02/24 03:50:06;;;;;;;18.15;4.30;;;6.40;11.70;;;;;;5017623;28;20048;-71
2022/02/24 03:52:32;;;;;;;25.92;4.45;;;6.50;19.40;;;;;;5017481;28;20120;-71
2022/02/24 03:54:57;;;;;;;27.52;4.38;;;6.70;48.60;;;;;;5017447;28;20045;-71
2022/02/24 03:57:23;;;;;;;18.10;4.20;;;6.90;47.80;;;;;;5018158;28;20049;-71
2022/02/24 03:59:49;;;;;;;24.17;4.65;;;6.90;22.70;;;;;;5017874;28;20033;-71
2022/02/24 04:02:15;;;;;;;19.00;3.95;;;6.90;29.20;;;;;;5017763;28;20069;-71
2022/02/24 04:04:42;;;;;;;15.93;4.20;;;6.90;17.00;;;;;;5017654;28;20133;-71
2022/02/24 04:07:08;;;;;;;13.25;4.38;;;6.90;14.70;;;;;;5016939;28;20045;-71
2022/02/24 04:09:35;;;;;;;21.42;4.25;;;6.90;13.50;;;;;;5017820;28;20500;-71
2022/02/24 04:12:02;;;;;;;25.92;4.25;;;7.00;28.70;;;;;;5017722;28;20040;-71
2022/02/24 04:14:28;;;;;;;22.70;4.47;;;6.90;36.30;;;;;;5018270;28;20508;-71
2022/02/24 04:16:54;;;;;;;22.52;4.70;;;7.00;45.90;;;;;;5017825;28;20046;-71
2022/02/24 04:19:19;;;;;;;21.58;4.53;;;6.90;36.60;;;;;;5016467;28;20037;-71
2022/02/24 04:21:45;;;;;;;17.95;4.47;;;6.90;43.90;;;;;;5017523;28;20045;-71
2022/02/24 04:24:11;;;;;;;21.10;3.58;;;7.00;25.40;;;;;;5017650;28;20052;-71
2022/02/24 04:26:37;;;;;;;17.88;3.50;;;7.00;27.70;;;;;;5017667;28;20042;-71
2022/02/24 04:29:03;;;;;;;20.70;4.40;;;7.00;31.70;;;;;;5017530;28;20566;-71
2022/02/24 04:31:29;;;;;;;22.15;4.30;;;7.10;38.70;;;;;;5017441;28;20064;-71
2022/02/24 04:33:55;;;;;;;22.38;4.45;;;7.20;38.10;;;;;;5016162;28;20073;-71
2022/02/24 04:36:23;;;;;;;19.27;3.90;;;7.20;34.20;;;;;;5017139;28;20100;-71
2022/02/24 04:38:49;;;;;;;21.75;4.75;;;7.30;29.30;;;;;;5016997;28;20116;-71
2022/02/24 04:41:15;;;;;;;27.20;4.50;;;7.20;35.80;;;;;;5017409;28;20048;-71
2022/02/24 04:43:41;;;;;;;25.27;4.00;;;7.40;40.60;;;;;;5017003;28;20046;-71
2022/02/24 04:46:07;;;;;;;26.77;4.95;;;7.50;50.90;;;;;;5017321;28;20041;-71
2022/02/24 04:48:33;;;;;;;31.67;4.45;;;7.60;49.90;;;;;;5017516;28;20141;-71
2022/02/24 04:50:58;;;;;;;27.00;4.88;;;7.70;45.70;;;;;;5016827;28;20117;-71
2022/02/24 04:53:25;;;;;;;23.38;4.60;;;7.70;38.70;;;;;;5016556;28;20046;-71
2022/02/24 04:55:51;;;;;;;27.67;5.13;;;7.70;47.40;;;;;;5016874;28;20125;-71
2022/02/24 04:58:17;;;;;;;23.10;4.40;;;7.70;47.50;;;;;;5016989;28;20037;-71
2022/02/24 05:00:43;;;;;;;21.10;4.85;;;7.80;44.10;;;;;;5016883;28;20042;-71
2022/02/24 05:03:09;;;;;;;23.38;4.30;;;7.60;35.40;;;;;;5016936;28;20114;-71
2022/02/24 05:05:35;;;;;;;14.57;3.67;;;7.60;35.80;;;;;;5016573;28;20441;-71
2022/02/24 05:08:01;;;;;;;30.27;4.30;;;7.50;28.30;;;;;;5016032;28;20049;-71
2022/02/24 05:10:27;;;;;;;30.48;4.75;;;7.60;48.00;;;;;;5016061;28;20030;-71
2022/02/24 05:12:55;;;;;;;29.38;4.60;;;7.60;52.60;;;;;;5016420;28;20038;-71
2022/02/24 05:15:21;;;;;;;28.92;4.72;;;7.80;55.20;;;;;;5016158;28;20050;-71
2022/02/24 05:17:49;;;;;;;23.38;4.80;;;7.80;57.10;;;;;;5016419;28;20560;-71
2022/02/24 05:20:15;;;;;;;25.25;4.60;;;7.90;54.90;;;;;;5016127;28;20125;-71
2022/02/24 05:22:43;;;;;;;23.50;3.92;;;8.00;51.40;;;;;;5015972;28;20073;-71
2022/02/24 05:25:11;;;;;;;34.65;5.13;;;8.00;52.20;;;;;;4998597;28;20400;-71
2022/02/24 05:27:37;;;;;;;33.55;4.50;;;8.00;48.00;;;;;;5016104;28;20040;-71
2022/02/24 05:30:05;;;;;;;34.28;5.45;;;7.90;55.80;;;;;;5016015;28;20396;-71
2022/02/24 05:32:31;;;;;;;32.13;5.15;;;7.80;63.60;;;;;;5015667;28;20034;-71
2022/02/24 05:34:57;;;;;;;22.67;4.68;;;7.80;69.30;;;;;;5015917;28;20095;-71
2022/02/24 05:37:26;;;;;;;29.25;4.47;;;7.80;73.60;;;;;;5015530;28;20516;-71
2022/02/24 05:39:56;;;;;;;26.30;4.47;;;7.70;65.70;;;;;;5015591;28;20092;-71
2022/02/24 05:42:22;;;;;;;25.50;5.23;;;7.50;76.20;;;;;;5015607;28;20042;-71
2022/02/24 05:44:49;;;;;;;36.75;5.10;;;7.50;91.80;;;;;;5015678;28;20137;-71
2022/02/24 05:47:16;;;;;;;36.30;5.35;;;7.50;99.60;;;;;;5016089;28;20037;-71
2022/02/24 05:49:41;;;;;;;27.70;5.57;;;7.50;99.90;;;;;;5015742;28;20074;-71
2022/02/24 05:52:08;;;;;;;24.42;5.57;;;7.40;97.80;;;;;;5015499;28;20048;-71
2022/02/24 05:54:34;;;;;;;22.15;4.88;;;7.40;99.90;;;;;;5015610;28;20544;-71
2022/02/24 05:57:00;;;;;;;30.95;5.18;;;7.40;98.20;;;;;;5015932;28;20057;-71
2022/02/24 05:59:26;;;;;;;27.17;5.03;;;7.30;99.90;;;;;;5015268;28;20037;-71
2022/02/24 06:01:52;;;;;;;22.85;4.50;;;7.40;97.40;;;;;;5015176;28;20042;-71
2022/02/24 06:04:18;;;;;;;30.75;6.25;;;7.30;95.30;;;;;;5015473;28;20120;-70
2022/02/24 06:06:44;;;;;;;21.80;5.05;;;7.30;93.70;;;;;;5014954;28;20124;-71
2022/02/24 06:09:10;;;;;;;27.38;4.85;;;7.20;98.70;;;;;;5015433;28;20034;-71
2022/02/24 06:11:36;;;;;;;28.05;5.30;;;7.20;97.60;;;;;;5015376;28;20057;-71
2022/02/24 06:14:03;;;;;;;27.65;4.70;;;7.20;99.90;;;;;;5015291;28;20590;-71
2022/02/24 06:16:29;;;;;;;32.28;5.28;;;7.30;99.70;;;;;;5015403;28;20050;-71
2022/02/24 06:18:55;;;;;;;24.92;4.50;;;7.30;97.60;;;;;;5015256;28;20044;-71
2022/02/24 06:21:21;;;;;;;28.45;4.78;;;7.20;96.80;;;;;;5014842;28;20128;-71
2022/02/24 06:23:46;;;;;;;44.42;5.85;;;7.20;99.90;;;;;;5014843;28;20506;-71
2022/02/24 06:26:13;;;;;;;26.25;4.70;;;7.30;99.90;;;;;;5015127;28;20050;-71
2022/02/24 06:28:39;;;;;;;29.25;5.32;;;7.30;98.50;;;;;;5015302;28;20041;-71
2022/02/24 06:31:05;;;;;;;29.90;5.00;;;7.40;99.90;;;;;;5015188;28;20046;-71
2022/02/24 06:33:31;;;;;;;30.27;5.38;;;7.40;98.80;;;;;;5014967;28;20079;-71
2022/02/24 06:35:57;;;;;;;23.73;4.40;;;7.40;99.90;;;;;;5014671;28;20041;-71
2022/02/24 06:38:23;;;;;;;35.78;5.60;;;7.40;99.90;;;;;;5015108;28;20115;-71
2022/02/24 06:40:49;;;;;;;23.80;4.40;;;7.50;99.90;;;;;;5014918;28;20105;-71
2022/02/24 06:43:15;;;;;;;29.55;4.28;;;7.60;97.20;;;;;;5014807;28;20034;-71
2022/02/24 06:45:41;;;;;;;22.65;5.53;;;7.60;93.80;;;;;;5014789;28;20046;-71
2022/02/24 06:48:07;;;;;;;24.83;4.93;;;7.60;75.70;;;;;;5014822;28;20030;-71
2022/02/24 06:50:33;;;;;;;25.10;4.38;;;7.50;62.20;;;;;;5014853;28;20045;-71
2022/02/24 06:52:59;;;;;;;22.13;4.10;;;7.30;64.60;;;;;;5014561;28;20042;-71
2022/02/24 06:55:25;;;;;;;20.83;5.00;;;7.20;82.30;;;;;;5009164;28;20136;-71
2022/02/24 06:57:54;;;;;;;22.63;3.97;;;7.20;84.00;;;;;;5003992;28;20073;-71
2022/02/24 07:00:21;;;;;;;23.02;4.22;;;7.30;94.80;;;;;;5394084;23;20101;-68
2022/02/24 07:02:47;;;;;;;31.08;4.80;;;7.40;96.20;;;;;;5025807;28;20047;-69
2022/02/24 07:05:14;;;;;;;25.42;5.22;;;7.50;86.30;;;;;;5034283;28;20042;-69
2022/02/24 07:07:40;;;;;;;25.20;5.43;;;7.50;68.70;;;;;;5016628;28;20446;-69
2022/02/24 07:10:14;;;;;;;20.98;4.45;;;7.60;65.40;;;;;;5026820;28;20077;-68
2022/02/24 07:12:44;;;;;;;23.55;5.18;;;7.60;52.10;;;;;;5034541;28;20038;-69
2022/02/24 07:15:12;;;;;;;22.88;4.38;;;7.60;48.80;;;;;;5021718;28;20049;-68
2022/02/24 07:17:40;;;;;;;24.08;4.30;;;7.60;56.00;;;;;;5034140;28;20124;-69
2022/02/24 07:20:07;;;;;;;24.25;4.43;;;7.60;55.40;;;;;;5029785;28;20088;-69
2022/02/24 07:22:33;;;;;;;20.98;5.43;;;7.70;57.10;;;;;;5020191;28;20034;-69
2022/02/24 07:24:59;;;;;;;30.95;5.18;;;7.70;37.40;;;;;;5014258;28;20045;-69
2022/02/24 07:27:25;;;;;;;23.92;4.88;;;7.70;36.80;;;;;;5018972;28;20171;-68
2022/02/24 07:29:51;;;;;;;23.77;5.00;;;7.80;37.10;;;;;;5033970;28;20034;-69
2022/02/24 07:32:17;;;;;;;19.25;4.85;;;7.80;39.60;;;;;;5034133;28;20055;-69
2022/02/24 07:34:43;;;;;;;23.40;4.47;;;7.90;41.30;;;;;;5026989;28;20045;-69
2022/02/24 07:37:08;;;;;;;23.67;4.32;;;7.90;33.90;;;;;;5033327;28;20041;-69
2022/02/24 07:39:34;;;;;;;21.23;4.10;;;8.00;28.20;;;;;;5031053;28;20037;-69
2022/02/24 07:42:00;;;;;;;27.95;4.85;;;8.00;27.80;;;;;;5019459;28;20591;-69
2022/02/24 07:44:26;;;;;;;18.70;4.13;;;8.00;29.00;;;;;;5014095;28;20476;-69
2022/02/24 07:46:52;;;;;;;22.55;4.53;;;8.20;29.70;;;;;;5014153;28;20069;-69
2022/02/24 07:49:18;;;;;;;25.98;5.38;;;8.30;26.80;;;;;;5013800;28;20121;-69
2022/02/24 07:51:48;;;;;;;26.40;5.97;;;8.50;24.60;;;;;;5015209;28;20088;-69
2022/02/24 07:54:14;;;;;;;22.50;5.40;;;8.60;15.70;;;;;;5013830;28;20511;-69
2022/02/24 07:56:40;;;;;;;23.05;5.05;;;8.70;12.50;;;;;;5028856;28;20037;-69
2022/02/24 07:59:05;;;;;;;26.98;4.57;;;8.70;6.30;;;;;;5029142;28;20380;-69
2022/02/24 08:01:31;;;;;;;18.85;4.30;;;9.00;2.70;;;;;;5033980;28;20064;-69
2022/02/24 08:03:57;;;;;;;22.30;4.50;;;9.30;1.00;;;;;;5030424;28;20376;-68
2022/02/24 08:06:23;;;;;;;22.05;4.45;;;9.60;1.00;;;;;;5022460;28;20041;-69
2022/02/24 08:08:49;;;;;;;25.42;4.45;;;9.70;1.00;;;;;;5022366;28;20454;-68
2022/02/24 08:11:15;;;;;;;24.27;4.85;;;10.00;1.00;;;;;;5024333;28;20045;-69
2022/02/24 08:13:42;;;;;;;22.67;3.90;;;10.10;1.00;;;;;;5030413;28;20037;-69
2022/02/24 08:16:08;;;;;;;23.67;4.40;;;10.40;1.00;;;;;;5027067;28;20042;-71
2022/02/24 08:18:37;;;;;;;23.77;4.25;;;10.50;1.00;;;;;;5032686;28;20083;-71
2022/02/24 08:21:03;;;;;;;19.45;4.18;;;10.50;1.00;;;;;;5036058;28;20045;-71
2022/02/24 08:23:32;;;;;;;27.83;7.38;;;10.40;1.00;;;;;;5034179;28;20044;-70
2022/02/24 08:26:01;;;;;;;22.77;3.67;;;10.50;1.00;;;;;;5035034;28;20077;-70
2022/02/24 08:28:30;;;;;;;18.83;4.88;;;10.70;1.00;;;;;;5035190;28;20092;-70
2022/02/24 08:30:59;;;;;;;40.83;10.73;;;10.80;1.00;;;;;;5035162;28;20045;-71
2022/02/24 08:33:27;;;;;;;25.35;5.55;;;10.80;1.00;;;;;;5035253;28;20049;-70
2022/02/24 08:35:53;;;;;;;22.85;5.28;;;10.80;1.00;;;;;;5035231;28;20041;-71
2022/02/24 08:38:19;;;;;;;19.63;4.03;;;10.80;1.00;;;;;;5035509;28;20041;-71
2022/02/24 08:40:45;;;;;;;23.23;4.63;;;10.90;1.00;;;;;;5017645;28;20217;-71
2022/02/24 08:43:11;;;;;;;19.08;3.85;;;10.90;1.00;;;;;;5035272;28;20435;-70
2022/02/24 08:45:39;;;;;;;20.80;4.28;;;11.10;1.00;;;;;;5026661;28;20041;-70
2022/02/24 08:48:06;;;;;;;25.20;5.40;;;11.20;1.00;;;;;;5031446;28;20049;-70
2022/02/24 08:50:32;;;;;;;19.20;3.95;;;11.30;1.00;;;;;;5020962;28;20519;-70
2022/02/24 08:52:58;;;;;;;18.65;3.95;;;11.70;1.00;;;;;;5000325;28;20038;-70
2022/02/24 08:55:25;;;;;;;21.73;4.45;;;11.90;1.00;;;;;;5029010;28;20044;-70
2022/02/24 08:57:58;;;;;;;17.33;3.78;;;11.90;1.00;;;;;;5024426;28;20057;-70
2022/02/24 09:00:24;;;;;;;20.27;4.07;;;12.00;1.00;;;;;;5031313;28;20531;-70
2022/02/24 09:02:49;;;;;;;18.98;3.78;;;12.30;1.00;;;;;;5025663;28;20021;-70
2022/02/24 09:05:15;;;;;;;17.67;3.65;;;12.30;1.00;;;;;;5036330;28;20053;-70
2022/02/24 09:07:41;;;;;;;13.70;3.30;;;12.30;1.00;;;;;;5031376;28;20068;-71
2022/02/24 09:10:07;;;;;;;15.18;3.22;;;12.10;1.00;;;;;;5017624;28;20476;-71
2022/02/24 09:12:33;;;;;;;14.20;3.95;;;11.90;1.00;;;;;;5021371;28;20128;-69
2022/02/24 09:14:59;;;;;;;20.33;3.60;;;11.80;1.00;;;;;;5021777;28;20513;-70
2022/02/24 09:17:25;;;;;;;14.35;4.05;;;12.20;1.00;;;;;;5017256;28;20038;-70
2022/02/24 09:19:51;;;;;;;13.88;3.45;;;12.10;1.00;;;;;;5022845;28;20113;-70
2022/02/24 09:22:17;;;;;;;16.88;4.32;;;11.70;1.00;;;;;;5015842;28;20066;-70
2022/02/24 09:24:43;;;;;;;22.88;3.55;;;11.40;1.00;;;;;;5015827;28;20049;-70
2022/02/24 09:27:09;;;;;;;18.13;4.75;;;11.50;1.00;;;;;;5030348;28;20034;-70
2022/02/24 09:29:37;;;;;;;15.95;3.78;;;11.80;1.00;;;;;;5015870;28;20037;-70
2022/02/24 09:32:03;;;;;;;14.23;3.22;;;11.60;1.00;;;;;;5017749;28;20046;-69
2022/02/24 09:34:29;;;;;;;20.42;3.67;;;11.50;1.00;;;;;;5041708;28;20092;-69
2022/02/24 09:36:55;;;;;;;12.02;2.95;;;11.30;1.00;;;;;;5035695;28;20041;-70
2022/02/24 09:39:21;;;;;;;10.25;2.75;;;11.40;1.00;;;;;;5036012;28;20132;-71
2022/02/24 09:41:46;;;;;;;17.45;3.97;;;11.40;1.00;;;;;;5016407;28;20065;-70
2022/02/24 09:44:12;;;;;;;14.23;3.45;;;11.30;1.00;;;;;;5018007;28;20076;-69
2022/02/24 09:46:41;;;;;;;14.02;3.20;;;11.10;1.00;;;;;;5031497;28;20079;-70
2022/02/24 09:49:09;;;;;;;15.32;4.78;;;10.90;1.00;;;;;;5035250;28;20048;-70
2022/02/24 09:51:35;;;;;;;14.30;3.28;;;10.80;1.00;;;;;;5028663;28;20053;-70
2022/02/24 09:54:02;;;;;;;17.02;4.07;;;10.80;1.00;;;;;;5017274;28;20048;-70
2022/02/24 09:56:29;;;;;;;14.15;3.38;;;10.90;1.00;;;;;;5015424;28;20037;-70
2022/02/24 09:58:57;;;;;;;13.13;3.10;;;11.00;1.00;;;;;;5022567;28;20167;-70
2022/02/24 10:01:23;;;;;;;13.32;3.72;;;10.90;1.00;;;;;;5020150;28;20064;-70
2022/02/24 10:04:01;;;;;;;17.30;3.85;;;10.80;1.00;;;;;;5019665;28;20043;-70
2022/02/24 10:06:42;;;;;;;11.30;4.20;;;10.70;1.00;;;;;;5032467;28;20092;-71
2022/02/24 10:09:10;;;;;;;15.07;3.55;;;10.80;1.00;;;;;;5022025;28;20112;-70
2022/02/24 10:11:39;;;;;;;21.27;3.65;;;10.80;1.00;;;;;;5033193;28;20499;-70
2022/02/24 10:14:15;;;;;;;27.77;11.75;;;10.70;1.00;;;;;;5028660;28;20037;-70
2022/02/24 10:16:59;;;;;;;18.20;3.70;;;10.70;1.00;;;;;;5028943;28;20500;-70
2022/02/24 10:19:27;;;;;;;17.55;3.72;;;10.80;1.00;;;;;;5029568;28;20034;-70
2022/02/24 10:22:19;;;;;;;16.58;3.53;;;10.90;1.00;;;;;;5021615;28;20046;-70
2022/02/24 10:25:04;;;;;;;19.92;4.22;;;11.00;1.00;;;;;;5033008;28;20043;-70
2022/02/24 10:27:33;;;;;;;14.98;3.83;;;11.10;1.00;;;;;;4998223;28;20040;-69
2022/02/24 10:30:16;;;;;;;20.20;4.47;;;11.40;1.00;;;;;;5025634;28;20042;-70
2022/02/24 10:32:44;;;;;;;15.50;3.53;;;11.40;1.00;;;;;;5014671;28;20079;-70
2022/02/24 10:35:40;;;;;;;14.25;3.33;;;11.60;1.00;;;;;;5031208;28;20072;-70
2022/02/24 10:38:11;;;;;;;18.80;4.32;;;11.80;1.00;;;;;;5028600;28;20053;-69
2022/02/24 10:40:38;;;;;;;16.60;3.33;;;12.00;1.00;;;;;;5032851;28;20037;-69
2022/02/24 10:43:23;;;;;;;20.20;3.72;;;12.10;1.00;;;;;;5031070;28;20423;-70
2022/02/24 10:46:09;;;;;;;13.95;3.47;;;12.20;1.00;;;;;;5022617;28;20503;-70
2022/02/24 10:48:57;;;;;;;19.33;5.20;;;12.30;1.00;;;;;;5033288;28;20029;-69
2022/02/24 10:51:31;;;;;;;12.10;3.42;;;12.50;1.00;;;;;;5033190;28;20052;-70
2022/02/24 10:54:04;;;;;;;10.57;3.35;;;12.50;1.00;;;;;;5033788;28;20037;-70
2022/02/24 10:56:31;;;;;;;17.65;4.80;;;12.50;1.00;;;;;;5033284;28;20083;-70
2022/02/24 10:58:58;;;;;;;24.23;12.00;;;12.50;1.00;;;;;;5017616;28;20037;-69
2022/02/24 11:01:25;;;;;;;14.77;5.30;;;12.60;1.00;;;;;;5013865;28;20060;-70
2022/02/24 11:03:55;;;;;;;17.25;4.10;;;12.50;1.00;;;;;;5014229;28;20160;-69
2022/02/24 11:06:22;;;;;;;13.20;4.20;;;12.40;1.00;;;;;;5023852;28;20595;-70
2022/02/24 11:08:51;;;;;;;15.50;3.85;;;12.30;1.00;;;;;;4998333;28;20038;-69
2022/02/24 11:11:28;;;;;;;13.68;4.18;;;12.30;1.00;;;;;;5014941;28;20038;-70
2022/02/24 11:13:57;;;;;;;12.25;4.25;;;12.30;1.00;;;;;;5015099;28;20072;-70
2022/02/24 11:16:24;;;;;;;12.57;3.53;;;12.50;1.00;;;;;;5014220;28;20048;-69
2022/02/24 11:18:57;;;;;;;12.75;3.78;;;12.60;1.00;;;;;;5017803;28;20045;-70
2022/02/24 11:21:23;;;;;;;11.32;3.53;;;12.80;1.00;;;;;;5033501;28;20054;-70
2022/02/24 11:23:51;;;;;;;26.45;13.50;;;12.90;1.00;;;;;;5026273;28;20084;-70
2022/02/24 11:26:23;;;;;;;21.55;6.35;;;13.00;1.00;;;;;;5014308;28;20061;-70
2022/02/24 11:29:15;;;;;;;13.98;4.03;;;13.00;1.00;;;;;;5024631;28;20514;-70
2022/02/24 11:31:54;;;;;;;13.02;5.00;;;12.90;1.00;;;;;;5013389;28;20053;-70
2022/02/24 11:35:09;;;;;;;9.25;3.20;;;13.10;1.00;;;;;;5016841;28;20053;-70
2022/02/24 11:37:46;;;;;;;10.45;3.22;;;13.10;1.00;;;;;;5002889;28;20412;-72
2022/02/24 11:40:24;;;;;;;9.45;3.20;;;13.20;1.00;;;;;;5015414;28;20046;-71
2022/02/24 11:43:11;;;;;;;14.50;3.25;;;13.30;1.00;;;;;;5029019;28;20038;-71
2022/02/24 11:45:47;;;;;;;12.18;3.95;;;13.30;1.00;;;;;;5035392;28;20038;-70
2022/02/24 11:48:13;;;;;;;10.93;3.80;;;13.50;1.00;;;;;;5014205;28;20042;-70
2022/02/24 11:50:42;;;;;;;12.02;3.28;;;13.50;1.00;;;;;;5017928;28;20048;-71
2022/02/24 11:53:25;;;;;;;16.50;4.28;;;13.60;1.00;;;;;;4997067;28;20038;-71
2022/02/24 11:55:59;;;;;;;12.55;3.80;;;13.40;1.00;;;;;;5024489;28;20049;-71
2022/02/24 11:58:59;;;;;;;11.73;3.25;;;13.60;1.00;;;;;;5035020;28;20041;-71
2022/02/24 12:01:44;;;;;;;11.43;3.78;;;13.80;1.00;;;;;;4972711;28;20685;-72
2022/02/24 12:04:20;;;;;;;11.45;3.25;;;13.90;1.00;;;;;;4996641;28;20033;-71
2022/02/24 12:06:57;;;;;;;12.07;3.00;;;14.00;1.00;;;;;;5017245;28;20039;-71
2022/02/24 12:09:25;;;;;;;10.98;2.80;;;13.80;1.00;;;;;;5030735;28;20037;-70
2022/02/24 12:11:53;;;;;;;8.50;3.05;;;14.00;1.00;;;;;;5023565;28;20148;-68
2022/02/24 12:14:19;;;;;;;16.52;4.60;;;14.00;1.00;;;;;;5039001;28;20041;-69
2022/02/24 12:17:03;;;;;;;12.85;4.43;;;14.10;1.00;;;;;;5037647;28;20587;-69
2022/02/24 12:19:56;;;;;;;7.32;2.83;;;13.90;1.00;;;;;;5036748;28;20091;-70
2022/02/24 12:22:29;;;;;;;8.90;3.05;;;13.50;1.00;;;;;;5036613;28;20103;-70
2022/02/24 12:25:08;;;;;;;9.18;2.85;;;13.30;1.00;;;;;;5037365;28;20108;-70
2022/02/24 12:27:35;;;;;;;13.32;3.35;;;13.30;1.00;;;;;;5029689;28;20565;-70
2022/02/24 12:30:01;;;;;;;13.90;3.40;;;13.20;1.00;;;;;;5016639;28;20030;-70
2022/02/24 12:32:55;;;;;;;8.85;2.90;;;13.30;1.00;;;;;;5026370;28;20451;-70
2022/02/24 12:35:23;;;;;;;12.25;3.00;;;13.30;1.00;;;;;;5018047;28;20650;-71
2022/02/24 12:38:06;;;;;;;11.57;3.05;;;13.30;1.00;;;;;;4999607;28;20045;-71
2022/02/24 12:40:36;;;;;;;8.73;2.90;;;13.40;1.00;;;;;;5031838;28;20052;-71
2022/02/24 12:43:05;;;;;;;12.60;2.90;;;13.40;1.00;;;;;;5032687;28;20439;-70
2022/02/24 12:45:32;;;;;;;8.50;2.88;;;13.50;1.00;;;;;;5016068;28;20087;-70
2022/02/24 12:48:00;;;;;;;11.07;4.60;;;13.60;1.00;;;;;;5013350;28;20530;-71
2022/02/24 12:50:32;;;;;;;9.25;2.80;;;13.70;1.00;;;;;;5023939;28;20041;-71
2022/02/24 12:53:06;;;;;;;7.82;2.72;;;13.90;1.00;;;;;;5018587;28;20380;-71
2022/02/24 12:55:32;;;;;;;11.70;2.72;;;14.10;1.00;;;;;;5014303;28;20053;-71